sensor_id;sensor_type;location;lat;lon;timestamp;P1;durP1;ratioP1;P2;durP2;ratioP2
29934;SDS011;19905;53.370;-6.314;2022-09-27T00:02:21;31.42;;;4.57;;
29934;SDS011;19905;53.370;-6.314;2022-09-27T00:04:52;40.47;;;4.95;;
29934;SDS011;19905;53.370;-6.314;2022-09-27T00:07:21;37.97;;;5.00;;
29934;SDS011;19905;53.370;-6.314;2022-09-27T00:09:49;32.42;;;4.35;;
29934;SDS011;19905;53.370;-6.314;2022-09-27T00:12:18;34.95;;;5.50;;
29934;SDS011;19905;53.370;-6.314;2022-09-27T00:14:48;36.22;;;4.63;;
29934;SDS011;19905;53.370;-6.314;2022-09-27T00:17:19;40.83;;;5.05;;
29934;SDS011;19905;53.370;-6.314;2022-09-27T00:19:48;35.28;;;4.65;;
29934;SDS011;19905;53.370;-6.314;2022-09-27T00:22:20;39.17;;;4.78;;
29934;SDS011;19905;53.370;-6.314;2022-09-27T00:24:49;37.60;;;4.88;;
29934;SDS011;19905;53.370;-6.314;2022-09-27T00:27:19;35.15;;;4.85;;
29934;SDS011;19905;53.370;-6.314;2022-09-27T00:29:50;43.08;;;4.95;;
29934;SDS011;19905;53.370;-6.314;2022-09-27T00:32:20;39.35;;;5.30;;
29934;SDS011;19905;53.370;-6.314;2022-09-27T00:34:51;42.25;;;4.82;;
29934;SDS011;19905;53.370;-6.314;2022-09-27T00:37:22;38.58;;;5.47;;
29934;SDS011;19905;53.370;-6.314;2022-09-27T00:39:52;37.42;;;4.72;;
29934;SDS011;19905;53.370;-6.314;2022-09-27T00:42:21;38.38;;;4.57;;
29934;SDS011;19905;53.370;-6.314;2022-09-27T00:45:00;34.20;;;5.40;;
29934;SDS011;19905;53.370;-6.314;2022-09-27T00:47:33;40.63;;;5.10;;
29934;SDS011;19905;53.370;-6.314;2022-09-27T00:50:13;34.17;;;4.97;;
29934;SDS011;19905;53.370;-6.314;2022-09-27T00:52:56;44.17;;;5.28;;
29934;SDS011;19905;53.370;-6.314;2022-09-27T00:55:32;47.80;;;6.25;;
29934;SDS011;19905;53.370;-6.314;2022-09-27T00:58:06;38.85;;;4.80;;
29934;SDS011;19905;53.370;-6.314;2022-09-27T01:00:35;47.97;;;5.38;;
29934;SDS011;19905;53.370;-6.314;2022-09-27T01:03:11;39.50;;;5.45;;
29934;SDS011;19905;53.370;-6.314;2022-09-27T01:05:44;41.05;;;5.20;;
29934;SDS011;19905;53.370;-6.314;2022-09-27T01:08:17;47.13;;;5.80;;
29934;SDS011;19905;53.370;-6.314;2022-09-27T01:10:47;48.78;;;5.93;;
29934;SDS011;19905;53.370;-6.314;2022-09-27T01:13:26;34.65;;;5.40;;
29934;SDS011;19905;53.370;-6.314;2022-09-27T01:16:04;44.67;;;5.63;;
29934;SDS011;19905;53.370;-6.314;2022-09-27T01:18:43;43.90;;;6.25;;
29934;SDS011;19905;53.370;-6.314;2022-09-27T01:21:29;41.63;;;5.30;;
29934;SDS011;19905;53.370;-6.314;2022-09-27T01:24:28;38.88;;;5.53;;
29934;SDS011;19905;53.370;-6.314;2022-09-27T01:30:36;34.13;;;5.35;;
29934;SDS011;19905;53.370;-6.314;2022-09-27T01:33:13;43.83;;;6.10;;
29934;SDS011;19905;53.370;-6.314;2022-09-27T01:36:14;37.22;;;5.22;;
29934;SDS011;19905;53.370;-6.314;2022-09-27T01:38:53;37.55;;;5.30;;
29934;SDS011;19905;53.370;-6.314;2022-09-27T01:41:34;44.10;;;6.30;;
29934;SDS011;19905;53.370;-6.314;2022-09-27T01:44:12;43.72;;;5.55;;
29934;SDS011;19905;53.370;-6.314;2022-09-27T01:46:47;36.65;;;5.13;;
29934;SDS011;19905;53.370;-6.314;2022-09-27T01:49:21;41.00;;;5.47;;
29934;SDS011;19905;53.370;-6.314;2022-09-27T01:51:57;35.42;;;5.00;;
29934;SDS011;19905;53.370;-6.314;2022-09-27T01:54:29;49.22;;;6.20;;
29934;SDS011;19905;53.370;-6.314;2022-09-27T01:57:02;44.42;;;5.43;;
29934;SDS011;19905;53.370;-6.314;2022-09-27T01:59:37;41.92;;;5.70;;
29934;SDS011;19905;53.370;-6.314;2022-09-27T02:02:12;48.80;;;6.15;;
29934;SDS011;19905;53.370;-6.314;2022-09-27T02:04:44;42.70;;;5.45;;
29934;SDS011;19905;53.370;-6.314;2022-09-27T02:07:15;42.15;;;5.65;;
29934;SDS011;19905;53.370;-6.314;2022-09-27T02:09:50;44.97;;;6.15;;
29934;SDS011;19905;53.370;-6.314;2022-09-27T02:12:24;42.15;;;5.38;;
29934;SDS011;19905;53.370;-6.314;2022-09-27T02:14:57;36.03;;;4.38;;
29934;SDS011;19905;53.370;-6.314;2022-09-27T02:17:34;49.30;;;5.47;;
29934;SDS011;19905;53.370;-6.314;2022-09-27T02:20:10;46.50;;;5.43;;
29934;SDS011;19905;53.370;-6.314;2022-09-27T02:22:48;40.50;;;6.38;;
29934;SDS011;19905;53.370;-6.314;2022-09-27T02:25:23;44.40;;;5.55;;
29934;SDS011;19905;53.370;-6.314;2022-09-27T02:27:57;42.90;;;5.53;;
29934;SDS011;19905;53.370;-6.314;2022-09-27T02:30:33;45.15;;;5.90;;
29934;SDS011;19905;53.370;-6.314;2022-09-27T02:33:04;48.80;;;6.25;;
29934;SDS011;19905;53.370;-6.314;2022-09-27T02:35:34;48.17;;;6.20;;
29934;SDS011;19905;53.370;-6.314;2022-09-27T02:38:05;51.10;;;6.28;;
29934;SDS011;19905;53.370;-6.314;2022-09-27T02:40:35;49.47;;;6.68;;
29934;SDS011;19905;53.370;-6.314;2022-09-27T02:43:12;53.67;;;6.88;;
29934;SDS011;19905;53.370;-6.314;2022-09-27T02:45:50;50.15;;;6.65;;
29934;SDS011;19905;53.370;-6.314;2022-09-27T02:48:38;39.67;;;5.63;;
29934;SDS011;19905;53.370;-6.314;2022-09-27T02:51:21;54.35;;;6.68;;
29934;SDS011;19905;53.370;-6.314;2022-09-27T02:54:04;52.45;;;5.85;;
29934;SDS011;19905;53.370;-6.314;2022-09-27T02:56:42;41.25;;;5.75;;
29934;SDS011;19905;53.370;-6.314;2022-09-27T02:59:23;39.42;;;5.55;;
29934;SDS011;19905;53.370;-6.314;2022-09-27T03:02:03;48.58;;;6.03;;
29934;SDS011;19905;53.370;-6.314;2022-09-27T03:04:47;43.22;;;6.00;;
29934;SDS011;19905;53.370;-6.314;2022-09-27T03:07:21;47.45;;;5.95;;
29934;SDS011;19905;53.370;-6.314;2022-09-27T03:09:56;47.08;;;6.13;;
29934;SDS011;19905;53.370;-6.314;2022-09-27T03:12:26;43.10;;;5.72;;
29934;SDS011;19905;53.370;-6.314;2022-09-27T03:14:56;42.20;;;5.55;;
29934;SDS011;19905;53.370;-6.314;2022-09-27T03:17:26;44.72;;;5.20;;
29934;SDS011;19905;53.370;-6.314;2022-09-27T03:19:56;47.55;;;5.40;;
29934;SDS011;19905;53.370;-6.314;2022-09-27T03:22:26;43.08;;;5.75;;
29934;SDS011;19905;53.370;-6.314;2022-09-27T03:24:54;45.83;;;5.85;;
29934;SDS011;19905;53.370;-6.314;2022-09-27T03:27:24;46.30;;;5.47;;
29934;SDS011;19905;53.370;-6.314;2022-09-27T03:29:55;38.58;;;5.65;;
29934;SDS011;19905;53.370;-6.314;2022-09-27T03:32:31;43.45;;;6.22;;
29934;SDS011;19905;53.370;-6.314;2022-09-27T03:35:03;40.60;;;6.13;;
29934;SDS011;19905;53.370;-6.314;2022-09-27T03:37:32;46.55;;;4.93;;
29934;SDS011;19905;53.370;-6.314;2022-09-27T03:40:01;48.35;;;5.38;;
29934;SDS011;19905;53.370;-6.314;2022-09-27T03:42:30;35.83;;;4.60;;
29934;SDS011;19905;53.370;-6.314;2022-09-27T03:44:59;37.70;;;5.97;;
29934;SDS011;19905;53.370;-6.314;2022-09-27T03:47:28;38.75;;;5.47;;
29934;SDS011;19905;53.370;-6.314;2022-09-27T03:49:57;39.38;;;5.38;;
29934;SDS011;19905;53.370;-6.314;2022-09-27T03:55:00;46.75;;;5.60;;
29934;SDS011;19905;53.370;-6.314;2022-09-27T04:00:02;38.88;;;5.15;;
29934;SDS011;19905;53.370;-6.314;2022-09-27T04:02:31;40.95;;;6.00;;
29934;SDS011;19905;53.370;-6.314;2022-09-27T04:05:00;45.03;;;5.50;;
29934;SDS011;19905;53.370;-6.314;2022-09-27T04:07:30;49.63;;;5.82;;
29934;SDS011;19905;53.370;-6.314;2022-09-27T04:10:06;36.83;;;5.40;;
29934;SDS011;19905;53.370;-6.314;2022-09-27T04:12:38;47.22;;;5.75;;
29934;SDS011;19905;53.370;-6.314;2022-09-27T04:15:09;46.20;;;5.70;;
29934;SDS011;19905;53.370;-6.314;2022-09-27T04:17:40;40.60;;;5.05;;
29934;SDS011;19905;53.370;-6.314;2022-09-27T04:20:09;42.25;;;5.70;;
29934;SDS011;19905;53.370;-6.314;2022-09-27T04:22:42;51.00;;;6.18;;
29934;SDS011;19905;53.370;-6.314;2022-09-27T04:27:44;43.25;;;5.20;;
29934;SDS011;19905;53.370;-6.314;2022-09-27T04:30:15;43.55;;;5.47;;
29934;SDS011;19905;53.370;-6.314;2022-09-27T04:35:15;51.13;;;5.82;;
29934;SDS011;19905;53.370;-6.314;2022-09-27T04:38:04;45.03;;;5.93;;
29934;SDS011;19905;53.370;-6.314;2022-09-27T04:40:34;45.35;;;6.43;;
29934;SDS011;19905;53.370;-6.314;2022-09-27T04:43:03;41.60;;;5.60;;
29934;SDS011;19905;53.370;-6.314;2022-09-27T04:45:32;42.92;;;5.03;;
29934;SDS011;19905;53.370;-6.314;2022-09-27T04:48:01;42.97;;;6.30;;
29934;SDS011;19905;53.370;-6.314;2022-09-27T04:50:30;41.63;;;5.13;;
29934;SDS011;19905;53.370;-6.314;2022-09-27T04:53:02;43.67;;;5.75;;
29934;SDS011;19905;53.370;-6.314;2022-09-27T04:55:33;35.70;;;5.53;;
29934;SDS011;19905;53.370;-6.314;2022-09-27T04:58:02;38.15;;;4.90;;
29934;SDS011;19905;53.370;-6.314;2022-09-27T05:00:32;48.65;;;6.00;;
29934;SDS011;19905;53.370;-6.314;2022-09-27T05:03:03;36.40;;;4.88;;
29934;SDS011;19905;53.370;-6.314;2022-09-27T05:05:31;42.58;;;5.40;;
29934;SDS011;19905;53.370;-6.314;2022-09-27T05:08:00;40.42;;;5.30;;
29934;SDS011;19905;53.370;-6.314;2022-09-27T05:10:30;46.63;;;5.60;;
29934;SDS011;19905;53.370;-6.314;2022-09-27T05:12:58;49.53;;;5.18;;
29934;SDS011;19905;53.370;-6.314;2022-09-27T05:15:27;44.78;;;5.82;;
29934;SDS011;19905;53.370;-6.314;2022-09-27T05:17:56;48.42;;;6.05;;
29934;SDS011;19905;53.370;-6.314;2022-09-27T05:20:26;43.60;;;5.78;;
29934;SDS011;19905;53.370;-6.314;2022-09-27T05:22:56;39.30;;;4.78;;
29934;SDS011;19905;53.370;-6.314;2022-09-27T05:25:25;43.13;;;5.70;;
29934;SDS011;19905;53.370;-6.314;2022-09-27T05:27:55;44.28;;;5.72;;
29934;SDS011;19905;53.370;-6.314;2022-09-27T05:30:27;47.92;;;5.95;;
29934;SDS011;19905;53.370;-6.314;2022-09-27T05:32:56;40.78;;;5.43;;
29934;SDS011;19905;53.370;-6.314;2022-09-27T05:35:25;58.17;;;5.47;;
29934;SDS011;19905;53.370;-6.314;2022-09-27T05:37:55;43.75;;;6.05;;
29934;SDS011;19905;53.370;-6.314;2022-09-27T05:40:25;41.50;;;5.05;;
29934;SDS011;19905;53.370;-6.314;2022-09-27T05:43:08;40.63;;;5.90;;
29934;SDS011;19905;53.370;-6.314;2022-09-27T05:45:39;45.95;;;5.35;;
29934;SDS011;19905;53.370;-6.314;2022-09-27T05:48:11;40.88;;;5.43;;
29934;SDS011;19905;53.370;-6.314;2022-09-27T05:50:40;45.85;;;5.90;;
29934;SDS011;19905;53.370;-6.314;2022-09-27T05:53:10;41.85;;;5.60;;
29934;SDS011;19905;53.370;-6.314;2022-09-27T05:58:18;50.72;;;6.18;;
29934;SDS011;19905;53.370;-6.314;2022-09-27T06:00:48;39.50;;;6.20;;
29934;SDS011;19905;53.370;-6.314;2022-09-27T06:03:17;42.67;;;6.18;;
29934;SDS011;19905;53.370;-6.314;2022-09-27T06:05:53;43.55;;;6.07;;
29934;SDS011;19905;53.370;-6.314;2022-09-27T06:08:22;51.55;;;5.82;;
29934;SDS011;19905;53.370;-6.314;2022-09-27T06:10:59;38.22;;;6.03;;
29934;SDS011;19905;53.370;-6.314;2022-09-27T06:13:32;47.55;;;5.68;;
29934;SDS011;19905;53.370;-6.314;2022-09-27T06:16:01;50.80;;;5.78;;
29934;SDS011;19905;53.370;-6.314;2022-09-27T06:18:33;49.63;;;6.40;;
29934;SDS011;19905;53.370;-6.314;2022-09-27T06:21:02;48.08;;;6.00;;
29934;SDS011;19905;53.370;-6.314;2022-09-27T06:23:34;51.05;;;6.00;;
29934;SDS011;19905;53.370;-6.314;2022-09-27T06:26:04;39.42;;;5.50;;
29934;SDS011;19905;53.370;-6.314;2022-09-27T06:28:35;34.83;;;5.25;;
29934;SDS011;19905;53.370;-6.314;2022-09-27T06:31:06;32.88;;;5.25;;
29934;SDS011;19905;53.370;-6.314;2022-09-27T06:33:41;52.05;;;6.47;;
29934;SDS011;19905;53.370;-6.314;2022-09-27T06:36:15;50.17;;;6.10;;
29934;SDS011;19905;53.370;-6.314;2022-09-27T06:38:44;49.15;;;5.82;;
29934;SDS011;19905;53.370;-6.314;2022-09-27T06:41:15;41.05;;;5.35;;
29934;SDS011;19905;53.370;-6.314;2022-09-27T06:43:46;47.00;;;5.82;;
29934;SDS011;19905;53.370;-6.314;2022-09-27T06:46:15;46.70;;;5.85;;
29934;SDS011;19905;53.370;-6.314;2022-09-27T06:48:44;51.80;;;6.93;;
29934;SDS011;19905;53.370;-6.314;2022-09-27T06:51:14;47.53;;;5.70;;
29934;SDS011;19905;53.370;-6.314;2022-09-27T06:53:42;42.80;;;5.97;;
29934;SDS011;19905;53.370;-6.314;2022-09-27T06:56:11;54.05;;;6.43;;
29934;SDS011;19905;53.370;-6.314;2022-09-27T06:58:40;39.88;;;5.72;;
29934;SDS011;19905;53.370;-6.314;2022-09-27T07:01:30;46.72;;;5.57;;
29934;SDS011;19905;53.370;-6.314;2022-09-27T07:04:01;43.15;;;5.25;;
29934;SDS011;19905;53.370;-6.314;2022-09-27T07:06:35;42.25;;;5.78;;
29934;SDS011;19905;53.370;-6.314;2022-09-27T07:09:04;43.85;;;5.47;;
29934;SDS011;19905;53.370;-6.314;2022-09-27T07:11:33;59.33;;;6.55;;
29934;SDS011;19905;53.370;-6.314;2022-09-27T07:14:07;53.95;;;13.60;;
29934;SDS011;19905;53.370;-6.314;2022-09-27T07:19:18;49.38;;;5.78;;
29934;SDS011;19905;53.370;-6.314;2022-09-27T07:24:18;47.05;;;6.25;;
29934;SDS011;19905;53.370;-6.314;2022-09-27T07:26:47;51.13;;;5.80;;
29934;SDS011;19905;53.370;-6.314;2022-09-27T07:29:18;42.95;;;6.75;;
29934;SDS011;19905;53.370;-6.314;2022-09-27T07:31:48;42.83;;;5.38;;
29934;SDS011;19905;53.370;-6.314;2022-09-27T07:34:18;38.15;;;5.35;;
29934;SDS011;19905;53.370;-6.314;2022-09-27T07:39:21;50.83;;;5.75;;
29934;SDS011;19905;53.370;-6.314;2022-09-27T07:41:49;48.13;;;6.93;;
29934;SDS011;19905;53.370;-6.314;2022-09-27T07:44:18;43.35;;;5.43;;
29934;SDS011;19905;53.370;-6.314;2022-09-27T07:46:48;41.95;;;5.60;;
29934;SDS011;19905;53.370;-6.314;2022-09-27T07:49:18;48.25;;;5.90;;
29934;SDS011;19905;53.370;-6.314;2022-09-27T07:51:47;46.00;;;5.82;;
29934;SDS011;19905;53.370;-6.314;2022-09-27T07:54:18;42.05;;;7.00;;
29934;SDS011;19905;53.370;-6.314;2022-09-27T07:56:48;51.25;;;8.38;;
29934;SDS011;19905;53.370;-6.314;2022-09-27T07:59:17;49.97;;;6.85;;
29934;SDS011;19905;53.370;-6.314;2022-09-27T08:04:32;46.10;;;5.85;;
29934;SDS011;19905;53.370;-6.314;2022-09-27T08:07:01;43.22;;;5.90;;
29934;SDS011;19905;53.370;-6.314;2022-09-27T08:09:29;47.88;;;6.20;;
29934;SDS011;19905;53.370;-6.314;2022-09-27T08:11:58;43.50;;;6.40;;
29934;SDS011;19905;53.370;-6.314;2022-09-27T08:14:27;52.80;;;5.40;;
29934;SDS011;19905;53.370;-6.314;2022-09-27T08:16:55;51.70;;;5.72;;
29934;SDS011;19905;53.370;-6.314;2022-09-27T08:19:33;45.28;;;5.32;;
29934;SDS011;19905;53.370;-6.314;2022-09-27T08:22:02;50.05;;;6.13;;
29934;SDS011;19905;53.370;-6.314;2022-09-27T08:24:30;42.00;;;6.20;;
29934;SDS011;19905;53.370;-6.314;2022-09-27T08:26:59;46.85;;;5.70;;
29934;SDS011;19905;53.370;-6.314;2022-09-27T08:29:35;44.78;;;6.20;;
29934;SDS011;19905;53.370;-6.314;2022-09-27T08:32:08;38.33;;;5.82;;
29934;SDS011;19905;53.370;-6.314;2022-09-27T08:34:40;49.53;;;6.25;;
29934;SDS011;19905;53.370;-6.314;2022-09-27T08:37:10;50.40;;;6.38;;
29934;SDS011;19905;53.370;-6.314;2022-09-27T08:39:41;52.95;;;6.05;;
29934;SDS011;19905;53.370;-6.314;2022-09-27T08:42:16;43.75;;;6.13;;
29934;SDS011;19905;53.370;-6.314;2022-09-27T08:44:57;39.72;;;5.60;;
29934;SDS011;19905;53.370;-6.314;2022-09-27T08:47:33;34.50;;;5.20;;
29934;SDS011;19905;53.370;-6.314;2022-09-27T08:50:21;45.78;;;6.40;;
29934;SDS011;19905;53.370;-6.314;2022-09-27T08:52:55;41.42;;;6.38;;
29934;SDS011;19905;53.370;-6.314;2022-09-27T08:55:30;45.95;;;5.88;;
29934;SDS011;19905;53.370;-6.314;2022-09-27T08:58:03;40.50;;;5.50;;
29934;SDS011;19905;53.370;-6.314;2022-09-27T09:00:40;39.00;;;5.65;;
29934;SDS011;19905;53.370;-6.314;2022-09-27T09:03:17;47.22;;;6.78;;
29934;SDS011;19905;53.370;-6.314;2022-09-27T09:05:55;47.35;;;6.40;;
29934;SDS011;19905;53.370;-6.314;2022-09-27T09:08:36;34.45;;;5.30;;
29934;SDS011;19905;53.370;-6.314;2022-09-27T09:11:19;45.72;;;5.93;;
29934;SDS011;19905;53.370;-6.314;2022-09-27T09:17:25;37.53;;;5.75;;
29934;SDS011;19905;53.370;-6.314;2022-09-27T09:20:09;39.85;;;5.47;;
29934;SDS011;19905;53.370;-6.314;2022-09-27T09:22:55;43.25;;;5.55;;
29934;SDS011;19905;53.370;-6.314;2022-09-27T09:25:34;48.20;;;6.03;;
29934;SDS011;19905;53.370;-6.314;2022-09-27T09:28:16;40.83;;;5.97;;
29934;SDS011;19905;53.370;-6.314;2022-09-27T09:30:58;38.72;;;5.50;;
29934;SDS011;19905;53.370;-6.314;2022-09-27T09:33:33;42.28;;;5.60;;
29934;SDS011;19905;53.370;-6.314;2022-09-27T09:36:09;43.47;;;5.95;;
29934;SDS011;19905;53.370;-6.314;2022-09-27T09:38:49;47.90;;;6.25;;
29934;SDS011;19905;53.370;-6.314;2022-09-27T09:41:25;40.65;;;6.03;;
29934;SDS011;19905;53.370;-6.314;2022-09-27T09:43:58;44.03;;;5.90;;
29934;SDS011;19905;53.370;-6.314;2022-09-27T09:46:32;50.45;;;6.20;;
29934;SDS011;19905;53.370;-6.314;2022-09-27T09:49:13;46.08;;;5.82;;
29934;SDS011;19905;53.370;-6.314;2022-09-27T09:51:46;34.50;;;5.38;;
29934;SDS011;19905;53.370;-6.314;2022-09-27T09:54:21;43.90;;;5.55;;
29934;SDS011;19905;53.370;-6.314;2022-09-27T09:56:56;41.03;;;5.75;;
29934;SDS011;19905;53.370;-6.314;2022-09-27T09:59:33;42.25;;;5.57;;
29934;SDS011;19905;53.370;-6.314;2022-09-27T10:02:13;42.83;;;5.70;;
29934;SDS011;19905;53.370;-6.314;2022-09-27T10:04:50;35.10;;;4.82;;
29934;SDS011;19905;53.370;-6.314;2022-09-27T10:07:19;48.45;;;5.47;;
29934;SDS011;19905;53.370;-6.314;2022-09-27T10:09:53;40.70;;;5.72;;
29934;SDS011;19905;53.370;-6.314;2022-09-27T10:12:26;37.70;;;5.15;;
29934;SDS011;19905;53.370;-6.314;2022-09-27T10:14:56;43.88;;;5.07;;
29934;SDS011;19905;53.370;-6.314;2022-09-27T10:17:32;45.40;;;5.80;;
29934;SDS011;19905;53.370;-6.314;2022-09-27T10:20:06;42.35;;;6.18;;
29934;SDS011;19905;53.370;-6.314;2022-09-27T10:22:44;40.15;;;5.40;;
29934;SDS011;19905;53.370;-6.314;2022-09-27T10:25:22;37.38;;;5.32;;
29934;SDS011;19905;53.370;-6.314;2022-09-27T10:27:51;37.60;;;5.35;;
29934;SDS011;19905;53.370;-6.314;2022-09-27T10:30:24;41.10;;;5.45;;
29934;SDS011;19905;53.370;-6.314;2022-09-27T10:32:55;41.25;;;5.35;;
29934;SDS011;19905;53.370;-6.314;2022-09-27T10:35:33;43.50;;;7.03;;
29934;SDS011;19905;53.370;-6.314;2022-09-27T10:38:20;41.92;;;6.32;;
29934;SDS011;19905;53.370;-6.314;2022-09-27T10:40:55;39.55;;;5.95;;
29934;SDS011;19905;53.370;-6.314;2022-09-27T10:43:29;36.92;;;6.18;;
29934;SDS011;19905;53.370;-6.314;2022-09-27T10:46:08;43.13;;;5.70;;
29934;SDS011;19905;53.370;-6.314;2022-09-27T10:48:43;37.45;;;5.57;;
29934;SDS011;19905;53.370;-6.314;2022-09-27T10:51:20;38.50;;;5.57;;
29934;SDS011;19905;53.370;-6.314;2022-09-27T10:53:53;39.20;;;5.60;;
29934;SDS011;19905;53.370;-6.314;2022-09-27T10:56:28;42.67;;;6.18;;
29934;SDS011;19905;53.370;-6.314;2022-09-27T10:58:59;31.08;;;5.57;;
29934;SDS011;19905;53.370;-6.314;2022-09-27T11:01:37;41.33;;;6.60;;
29934;SDS011;19905;53.370;-6.314;2022-09-27T11:04:14;41.85;;;5.25;;
29934;SDS011;19905;53.370;-6.314;2022-09-27T11:06:46;41.17;;;5.97;;
29934;SDS011;19905;53.370;-6.314;2022-09-27T11:09:17;37.60;;;5.78;;
29934;SDS011;19905;53.370;-6.314;2022-09-27T11:11:54;32.35;;;4.57;;
29934;SDS011;19905;53.370;-6.314;2022-09-27T11:14:37;30.30;;;4.57;;
29934;SDS011;19905;53.370;-6.314;2022-09-27T11:17:14;32.88;;;4.22;;
29934;SDS011;19905;53.370;-6.314;2022-09-27T11:25:58;37.80;;;4.85;;
29934;SDS011;19905;53.370;-6.314;2022-09-27T11:28:40;37.65;;;5.63;;
29934;SDS011;19905;53.370;-6.314;2022-09-27T11:31:22;23.17;;;4.47;;
29934;SDS011;19905;53.370;-6.314;2022-09-27T11:37:06;33.80;;;4.68;;
29934;SDS011;19905;53.370;-6.314;2022-09-27T11:39:50;23.73;;;4.88;;
29934;SDS011;19905;53.370;-6.314;2022-09-27T11:45:29;33.90;;;4.68;;
29934;SDS011;19905;53.370;-6.314;2022-09-27T11:48:37;33.92;;;4.55;;
29934;SDS011;19905;53.370;-6.314;2022-09-27T11:51:25;32.72;;;4.78;;
29934;SDS011;19905;53.370;-6.314;2022-09-27T11:54:11;27.58;;;4.32;;
29934;SDS011;19905;53.370;-6.314;2022-09-27T11:56:57;28.48;;;4.25;;
29934;SDS011;19905;53.370;-6.314;2022-09-27T11:59:39;30.13;;;4.50;;
29934;SDS011;19905;53.370;-6.314;2022-09-27T12:02:41;29.00;;;4.75;;
29934;SDS011;19905;53.370;-6.314;2022-09-27T12:05:24;29.48;;;4.30;;
29934;SDS011;19905;53.370;-6.314;2022-09-27T12:08:06;33.40;;;4.82;;
29934;SDS011;19905;53.370;-6.314;2022-09-27T12:10:49;29.17;;;4.35;;
29934;SDS011;19905;53.370;-6.314;2022-09-27T12:13:28;28.65;;;4.43;;
29934;SDS011;19905;53.370;-6.314;2022-09-27T12:16:01;28.40;;;4.30;;
29934;SDS011;19905;53.370;-6.314;2022-09-27T12:18:34;26.45;;;3.88;;
29934;SDS011;19905;53.370;-6.314;2022-09-27T12:21:07;27.17;;;4.00;;
29934;SDS011;19905;53.370;-6.314;2022-09-27T12:23:39;21.38;;;3.95;;
29934;SDS011;19905;53.370;-6.314;2022-09-27T12:26:12;21.50;;;3.55;;
29934;SDS011;19905;53.370;-6.314;2022-09-27T12:28:48;33.08;;;4.18;;
29934;SDS011;19905;53.370;-6.314;2022-09-27T12:31:21;28.98;;;4.45;;
29934;SDS011;19905;53.370;-6.314;2022-09-27T12:34:12;28.42;;;3.97;;
29934;SDS011;19905;53.370;-6.314;2022-09-27T12:36:48;31.38;;;4.60;;
29934;SDS011;19905;53.370;-6.314;2022-09-27T12:39:24;30.70;;;4.53;;
29934;SDS011;19905;53.370;-6.314;2022-09-27T12:43:09;34.40;;;4.63;;
29934;SDS011;19905;53.370;-6.314;2022-09-27T12:45:42;26.70;;;4.13;;
29934;SDS011;19905;53.370;-6.314;2022-09-27T12:48:22;23.75;;;3.80;;
29934;SDS011;19905;53.370;-6.314;2022-09-27T12:57:09;34.83;;;4.53;;
29934;SDS011;19905;53.370;-6.314;2022-09-27T13:00:20;28.77;;;4.47;;
29934;SDS011;19905;53.370;-6.314;2022-09-27T13:05:39;26.35;;;3.80;;
29934;SDS011;19905;53.370;-6.314;2022-09-27T13:06:41;25.48;;;4.20;;
29934;SDS011;19905;53.370;-6.314;2022-09-27T13:09:43;31.95;;;4.20;;
29934;SDS011;19905;53.370;-6.314;2022-09-27T13:12:33;32.65;;;4.68;;
29934;SDS011;19905;53.370;-6.314;2022-09-27T13:15:13;28.58;;;4.68;;
29934;SDS011;19905;53.370;-6.314;2022-09-27T13:17:49;31.80;;;4.20;;
29934;SDS011;19905;53.370;-6.314;2022-09-27T13:20:36;30.23;;;4.38;;
29934;SDS011;19905;53.370;-6.314;2022-09-27T13:29:28;28.27;;;3.78;;
29934;SDS011;19905;53.370;-6.314;2022-09-27T13:32:10;24.90;;;3.65;;
29934;SDS011;19905;53.370;-6.314;2022-09-27T13:34:49;30.38;;;4.45;;
29934;SDS011;19905;53.370;-6.314;2022-09-27T13:37:42;24.67;;;4.20;;
29934;SDS011;19905;53.370;-6.314;2022-09-27T13:43:21;29.42;;;4.07;;
29934;SDS011;19905;53.370;-6.314;2022-09-27T13:46:15;22.13;;;3.50;;
29934;SDS011;19905;53.370;-6.314;2022-09-27T13:48:49;27.30;;;3.67;;
29934;SDS011;19905;53.370;-6.314;2022-09-27T13:51:30;22.30;;;3.65;;
29934;SDS011;19905;53.370;-6.314;2022-09-27T13:54:04;27.05;;;4.40;;
29934;SDS011;19905;53.370;-6.314;2022-09-27T13:56:50;24.15;;;3.95;;
29934;SDS011;19905;53.370;-6.314;2022-09-27T13:59:24;25.63;;;3.70;;
29934;SDS011;19905;53.370;-6.314;2022-09-27T14:02:18;22.13;;;3.83;;
29934;SDS011;19905;53.370;-6.314;2022-09-27T14:04:56;29.60;;;4.00;;
29934;SDS011;19905;53.370;-6.314;2022-09-27T14:07:48;24.98;;;3.90;;
29934;SDS011;19905;53.370;-6.314;2022-09-27T14:10:19;23.42;;;4.15;;
29934;SDS011;19905;53.370;-6.314;2022-09-27T14:12:57;21.02;;;3.33;;
29934;SDS011;19905;53.370;-6.314;2022-09-27T14:15:30;30.63;;;3.92;;
29934;SDS011;19905;53.370;-6.314;2022-09-27T14:18:20;27.08;;;4.03;;
29934;SDS011;19905;53.370;-6.314;2022-09-27T14:20:52;27.42;;;3.75;;
29934;SDS011;19905;53.370;-6.314;2022-09-27T14:23:21;17.30;;;3.20;;
29934;SDS011;19905;53.370;-6.314;2022-09-27T14:26:24;22.60;;;3.92;;
29934;SDS011;19905;53.370;-6.314;2022-09-27T14:29:13;28.13;;;3.60;;
29934;SDS011;19905;53.370;-6.314;2022-09-27T14:32:02;22.58;;;4.00;;
29934;SDS011;19905;53.370;-6.314;2022-09-27T14:34:46;21.70;;;3.60;;
29934;SDS011;19905;53.370;-6.314;2022-09-27T14:37:35;20.65;;;3.95;;
29934;SDS011;19905;53.370;-6.314;2022-09-27T14:40:06;26.33;;;3.95;;
29934;SDS011;19905;53.370;-6.314;2022-09-27T14:42:54;29.23;;;4.45;;
29934;SDS011;19905;53.370;-6.314;2022-09-27T14:45:41;23.40;;;3.33;;
29934;SDS011;19905;53.370;-6.314;2022-09-27T14:48:30;23.52;;;3.10;;
29934;SDS011;19905;53.370;-6.314;2022-09-27T14:51:02;20.50;;;3.15;;
29934;SDS011;19905;53.370;-6.314;2022-09-27T14:53:46;20.58;;;3.30;;
29934;SDS011;19905;53.370;-6.314;2022-09-27T14:56:16;20.98;;;3.35;;
29934;SDS011;19905;53.370;-6.314;2022-09-27T14:58:48;20.85;;;3.33;;
29934;SDS011;19905;53.370;-6.314;2022-09-27T15:01:24;19.65;;;3.70;;
29934;SDS011;19905;53.370;-6.314;2022-09-27T15:03:53;24.50;;;4.05;;
29934;SDS011;19905;53.370;-6.314;2022-09-27T15:06:39;23.65;;;3.53;;
29934;SDS011;19905;53.370;-6.314;2022-09-27T15:09:23;21.65;;;3.30;;
29934;SDS011;19905;53.370;-6.314;2022-09-27T15:12:00;23.50;;;3.50;;
29934;SDS011;19905;53.370;-6.314;2022-09-27T15:14:34;20.67;;;3.08;;
29934;SDS011;19905;53.370;-6.314;2022-09-27T15:17:13;28.58;;;3.58;;
29934;SDS011;19905;53.370;-6.314;2022-09-27T15:20:02;23.38;;;3.58;;
29934;SDS011;19905;53.370;-6.314;2022-09-27T15:22:50;27.25;;;3.67;;
29934;SDS011;19905;53.370;-6.314;2022-09-27T15:25:20;24.98;;;3.67;;
29934;SDS011;19905;53.370;-6.314;2022-09-27T15:28:00;18.55;;;3.08;;
29934;SDS011;19905;53.370;-6.314;2022-09-27T15:30:35;20.88;;;3.65;;
29934;SDS011;19905;53.370;-6.314;2022-09-27T15:33:17;26.05;;;5.03;;
29934;SDS011;19905;53.370;-6.314;2022-09-27T15:35:48;24.15;;;3.50;;
29934;SDS011;19905;53.370;-6.314;2022-09-27T15:38:25;21.50;;;3.30;;
29934;SDS011;19905;53.370;-6.314;2022-09-27T15:41:04;22.73;;;3.47;;
29934;SDS011;19905;53.370;-6.314;2022-09-27T15:43:36;23.92;;;3.10;;
29934;SDS011;19905;53.370;-6.314;2022-09-27T15:49:25;22.02;;;3.92;;
29934;SDS011;19905;53.370;-6.314;2022-09-27T15:52:00;22.65;;;3.55;;
29934;SDS011;19905;53.370;-6.314;2022-09-27T15:54:31;26.80;;;4.60;;
29934;SDS011;19905;53.370;-6.314;2022-09-27T15:57:02;27.45;;;4.57;;
29934;SDS011;19905;53.370;-6.314;2022-09-27T15:59:33;22.95;;;4.72;;
29934;SDS011;19905;53.370;-6.314;2022-09-27T16:02:08;22.27;;;4.07;;
29934;SDS011;19905;53.370;-6.314;2022-09-27T16:04:46;19.40;;;4.28;;
29934;SDS011;19905;53.370;-6.314;2022-09-27T16:07:14;23.08;;;3.70;;
29934;SDS011;19905;53.370;-6.314;2022-09-27T16:09:44;28.05;;;4.63;;
29934;SDS011;19905;53.370;-6.314;2022-09-27T16:12:15;19.30;;;3.58;;